Terminal Aerodrome Forecast
Issued by NWS

Home | Current Version | Previous Version | Text Only | Print | Product List | Glossary On
Versions: 1 2 3 4 5 6 7 8 9 10 11 12 13 14 15 16
550
FTUS43 KICT 210529
TAFHUT
TAF
KHUT 210529Z 2106/2206 10006KT P6SM FEW250
     FM211400 19012KT P6SM BKN140
     FM212200 20012KT P6SM BKN035
     FM220100 25010KT P6SM BKN035=

USA.gov is the U.S. government's official web portal to all federal, state and local government web resources and services.